DAL128 KPDX-RJFF
Flight info
| Callsign | DAL128 |
|---|---|
| Flight time | N/A |
| Altitude | 34000 |
| Route | AST DCT PRETY DCT 50N140W 52N150W/N0483F360 55N160W 56N170W DCT POOFF DCT NATES/N0486F380 DCT NIKLL DCT NYMPH DCT NUZAN DCT NRKEY DCT NIPPI/N0482F390 R220 NUBDA/N0486F400 R220 NANNO HPE V34 GTC Y142 SAMON Y14 STOUT Y20 KIRIN |
| Aircraft | MD11/H-SDE1E2E3FGHIJ2J3J4J5M1RWXY/LB1D1 |
Departure
| Time | 2026-05-04 03:42 |
|---|---|
| Airport | Portland International Airport (KPDX) |
Arrival
| Time | N/A |
|---|---|
| Airport | Fukuoka Airport (RJFF) |
| Time | Latitude | Longitude | Altitude | Speed | Heading |
|---|---|---|---|---|---|
| 2026-05-04 03:07 | 45.59194 | -122.59699 | 36 ft | 0 kts | 149° |
| 2026-05-04 03:25 | 45.59201 | -122.59705 | 36 ft | 2 kts | 149° |
| 2026-05-04 03:25 | 45.59218 | -122.59719 | 36 ft | 3 kts | 144° |
| 2026-05-04 03:25 | 45.59232 | -122.59738 | 35 ft | 3 kts | 123° |
| 2026-05-04 03:26 | 45.59242 | -122.59763 | 35 ft | 3 kts | 116° |
| 2026-05-04 03:26 | 45.59250 | -122.59785 | 35 ft | 3 kts | 126° |
| 2026-05-04 03:26 | 45.59261 | -122.59800 | 33 ft | 3 kts | 179° |
| 2026-05-04 03:26 | 45.59275 | -122.59796 | 35 ft | 1 kts | 210° |
| 2026-05-04 03:27 | 45.59287 | -122.59786 | 35 ft | 3 kts | 210° |
| 2026-05-04 03:27 | 45.59296 | -122.59779 | 34 ft | 7 kts | 210° |
| 2026-05-04 03:30 | 45.59292 | -122.59782 | 34 ft | 3 kts | 210° |
| 2026-05-04 03:30 | 45.59276 | -122.59795 | 35 ft | 2 kts | 210° |
| 2026-05-04 03:31 | 45.59260 | -122.59808 | 34 ft | 3 kts | 210° |
| 2026-05-04 03:31 | 45.59234 | -122.59829 | 34 ft | 6 kts | 208° |
| 2026-05-04 03:31 | 45.59179 | -122.59873 | 34 ft | 12 kts | 213° |
| 2026-05-04 03:31 | 45.59144 | -122.59963 | 36 ft | 9 kts | 259° |
| 2026-05-04 03:32 | 45.59126 | -122.60040 | 35 ft | 7 kts | 236° |
| 2026-05-04 03:32 | 45.59096 | -122.60082 | 33 ft | 6 kts | 220° |
| 2026-05-04 03:32 | 45.59055 | -122.60123 | 35 ft | 8 kts | 212° |
| 2026-05-04 03:32 | 45.59001 | -122.60171 | 35 ft | 10 kts | 209° |
| 2026-05-04 03:33 | 45.58934 | -122.60223 | 35 ft | 11 kts | 205° |
| 2026-05-04 03:33 | 45.58921 | -122.60231 | 35 ft | 0 kts | 204° |
| 2026-05-04 03:33 | 45.58919 | -122.60232 | 34 ft | 0 kts | 204° |
| 2026-05-04 03:34 | 45.58918 | -122.60233 | 34 ft | 1 kts | 204° |
| 2026-05-04 03:34 | 45.58918 | -122.60230 | 34 ft | 0 kts | 146° |
| 2026-05-04 03:34 | 45.58902 | -122.60211 | 35 ft | 8 kts | 138° |
| 2026-05-04 03:34 | 45.58866 | -122.60148 | 36 ft | 8 kts | 124° |
| 2026-05-04 03:35 | 45.58839 | -122.60086 | 36 ft | 7 kts | 120° |
| 2026-05-04 03:35 | 45.58818 | -122.60032 | 36 ft | 5 kts | 119° |
| 2026-05-04 03:35 | 45.58801 | -122.59988 | 35 ft | 6 kts | 119° |
| 2026-05-04 03:35 | 45.58774 | -122.59917 | 36 ft | 10 kts | 119° |
| 2026-05-04 03:36 | 45.58739 | -122.59825 | 37 ft | 10 kts | 118° |
| 2026-05-04 03:36 | 45.58706 | -122.59740 | 36 ft | 10 kts | 119° |
| 2026-05-04 03:36 | 45.58672 | -122.59654 | 36 ft | 10 kts | 119° |
| 2026-05-04 03:36 | 45.58637 | -122.59564 | 34 ft | 10 kts | 120° |
| 2026-05-04 03:37 | 45.58601 | -122.59474 | 36 ft | 11 kts | 120° |
| 2026-05-04 03:37 | 45.58564 | -122.59381 | 36 ft | 11 kts | 119° |
| 2026-05-04 03:37 | 45.58525 | -122.59284 | 34 ft | 11 kts | 119° |
| 2026-05-04 03:37 | 45.58487 | -122.59186 | 36 ft | 12 kts | 118° |
| 2026-05-04 03:38 | 45.58443 | -122.59071 | 36 ft | 15 kts | 118° |
| 2026-05-04 03:38 | 45.58389 | -122.58935 | 36 ft | 17 kts | 119° |
| 2026-05-04 03:38 | 45.58333 | -122.58790 | 36 ft | 15 kts | 119° |
| 2026-05-04 03:38 | 45.58288 | -122.58673 | 36 ft | 12 kts | 119° |
| 2026-05-04 03:39 | 45.58250 | -122.58578 | 35 ft | 10 kts | 120° |
| 2026-05-04 03:39 | 45.58220 | -122.58480 | 35 ft | 11 kts | 109° |
| 2026-05-04 03:39 | 45.58182 | -122.58389 | 36 ft | 6 kts | 142° |
| 2026-05-04 03:39 | 45.58159 | -122.58373 | 35 ft | 7 kts | 160° |
| 2026-05-04 03:40 | 45.58094 | -122.58387 | 35 ft | 4 kts | 213° |
| 2026-05-04 03:40 | 45.58086 | -122.58397 | 34 ft | 1 kts | 218° |
| 2026-05-04 03:40 | 45.58086 | -122.58400 | 34 ft | 0 kts | 242° |
| 2026-05-04 03:40 | 45.58082 | -122.58418 | 36 ft | 3 kts | 256° |
| 2026-05-04 03:41 | 45.58087 | -122.58465 | 36 ft | 8 kts | 287° |
| 2026-05-04 03:41 | 45.58188 | -122.58735 | 36 ft | 60 kts | 299° |
| 2026-05-04 03:41 | 45.58493 | -122.59517 | 37 ft | 119 kts | 299° |
| 2026-05-04 03:41 | 45.58986 | -122.60784 | 38 ft | 172 kts | 298° |
| 2026-05-04 03:42 | 45.59567 | -122.62337 | 593 ft | 177 kts | 299° |
| 2026-05-04 03:42 | 45.60091 | -122.63963 | 1302 ft | 186 kts | 297° |
| 2026-05-04 03:42 | 45.60609 | -122.65836 | 1486 ft | 220 kts | 295° |
| 2026-05-04 03:42 | 45.61196 | -122.68031 | 1653 ft | 252 kts | 294° |
| 2026-05-04 03:43 | 45.61864 | -122.70473 | 2099 ft | 269 kts | 294° |
| 2026-05-04 03:43 | 45.62597 | -122.72928 | 3044 ft | 271 kts | 300° |
| 2026-05-04 03:43 | 45.63584 | -122.75238 | 3948 ft | 274 kts | 304° |
| 2026-05-04 03:43 | 45.64654 | -122.77525 | 4815 ft | 281 kts | 304° |
| 2026-05-04 03:44 | 45.65765 | -122.79852 | 5668 ft | 285 kts | 304° |
| 2026-05-04 03:44 | 45.66894 | -122.82216 | 6494 ft | 290 kts | 304° |
| 2026-05-04 03:44 | 45.68027 | -122.84597 | 7318 ft | 292 kts | 304° |
| 2026-05-04 03:44 | 45.69175 | -122.87017 | 8133 ft | 294 kts | 304° |
| 2026-05-04 03:45 | 45.70329 | -122.89454 | 8917 ft | 298 kts | 304° |
| 2026-05-04 03:45 | 45.71493 | -122.91918 | 9691 ft | 301 kts | 304° |
| 2026-05-04 03:45 | 45.72675 | -122.94424 | 10211 ft | 312 kts | 304° |
| 2026-05-04 03:45 | 45.73940 | -122.97104 | 10337 ft | 337 kts | 304° |
| 2026-05-04 03:46 | 45.75294 | -122.99982 | 10497 ft | 359 kts | 304° |
| 2026-05-04 03:46 | 45.76702 | -123.02975 | 11126 ft | 365 kts | 304° |
| 2026-05-04 03:46 | 45.78113 | -123.05982 | 11813 ft | 369 kts | 304° |
| 2026-05-04 03:46 | 45.78323 | -123.06428 | 11912 ft | 370 kts | 304° |
| 2026-05-04 03:47 | 45.79792 | -123.09549 | 12598 ft | 374 kts | 304° |
| 2026-05-04 03:47 | 45.81249 | -123.12658 | 13263 ft | 378 kts | 304° |
| 2026-05-04 03:47 | 45.82724 | -123.15814 | 13870 ft | 383 kts | 304° |
| 2026-05-04 03:47 | 45.84211 | -123.18999 | 14469 ft | 385 kts | 304° |
| 2026-05-04 03:48 | 45.85706 | -123.22203 | 15045 ft | 388 kts | 304° |
| 2026-05-04 03:48 | 45.87214 | -123.25438 | 15615 ft | 392 kts | 305° |
| 2026-05-04 03:48 | 45.88733 | -123.28700 | 16173 ft | 395 kts | 305° |
| 2026-05-04 03:48 | 45.90264 | -123.31993 | 16719 ft | 398 kts | 305° |
| 2026-05-04 03:49 | 45.91806 | -123.35310 | 17260 ft | 401 kts | 305° |
| 2026-05-04 03:49 | 45.93359 | -123.38657 | 17776 ft | 404 kts | 305° |
| 2026-05-04 03:49 | 45.94924 | -123.42033 | 18268 ft | 407 kts | 305° |
| 2026-05-04 03:49 | 45.96498 | -123.45431 | 18698 ft | 410 kts | 305° |
| 2026-05-04 03:50 | 45.98081 | -123.48853 | 19124 ft | 412 kts | 305° |
| 2026-05-04 03:50 | 45.99673 | -123.52301 | 19523 ft | 415 kts | 305° |
| 2026-05-04 03:50 | 46.01272 | -123.55768 | 19940 ft | 418 kts | 305° |
| 2026-05-04 03:50 | 46.02882 | -123.59262 | 20341 ft | 420 kts | 306° |
| 2026-05-04 03:51 | 46.04502 | -123.62781 | 20746 ft | 423 kts | 305° |
| 2026-05-04 03:51 | 46.06128 | -123.66319 | 21174 ft | 425 kts | 306° |
| 2026-05-04 03:51 | 46.07764 | -123.69882 | 21600 ft | 428 kts | 306° |
| 2026-05-04 03:51 | 46.09401 | -123.73470 | 22042 ft | 430 kts | 305° |
| 2026-05-04 03:52 | 46.11036 | -123.77085 | 22460 ft | 432 kts | 305° |
| 2026-05-04 03:52 | 46.12685 | -123.80733 | 22892 ft | 435 kts | 305° |
| 2026-05-04 03:52 | 46.14343 | -123.84393 | 23351 ft | 437 kts | 305° |
| 2026-05-04 03:52 | 46.16013 | -123.88071 | 23736 ft | 440 kts | 306° |
| 2026-05-04 03:53 | 46.17696 | -123.91773 | 24129 ft | 442 kts | 306° |
| 2026-05-04 03:53 | 46.19388 | -123.95496 | 24506 ft | 445 kts | 306° |
| 2026-05-04 03:53 | 46.21089 | -123.99240 | 24896 ft | 447 kts | 306° |
| 2026-05-04 03:53 | 46.22785 | -124.03026 | 25283 ft | 450 kts | 304° |
| 2026-05-04 03:54 | 46.24393 | -124.06928 | 25664 ft | 454 kts | 303° |
| 2026-05-04 03:54 | 46.25945 | -124.10920 | 26022 ft | 458 kts | 302° |
| 2026-05-04 03:54 | 46.27482 | -124.14968 | 26419 ft | 460 kts | 302° |
| 2026-05-04 03:54 | 46.29019 | -124.19042 | 26791 ft | 463 kts | 302° |
| 2026-05-04 03:55 | 46.30567 | -124.23139 | 27156 ft | 466 kts | 302° |
| 2026-05-04 03:55 | 46.32130 | -124.27260 | 27521 ft | 468 kts | 302° |
| 2026-05-04 03:55 | 46.33704 | -124.31402 | 27890 ft | 471 kts | 302° |
| 2026-05-04 03:55 | 46.35288 | -124.35569 | 28261 ft | 474 kts | 302° |
| 2026-05-04 03:56 | 46.36859 | -124.39702 | 28604 ft | 476 kts | 303° |
| 2026-05-04 03:56 | 46.38462 | -124.43922 | 28915 ft | 480 kts | 303° |
| 2026-05-04 03:56 | 46.40073 | -124.48171 | 29267 ft | 482 kts | 303° |
| 2026-05-04 03:56 | 46.41690 | -124.52443 | 29581 ft | 485 kts | 303° |
| 2026-05-04 03:57 | 46.43314 | -124.56742 | 29841 ft | 487 kts | 303° |
| 2026-05-04 03:57 | 46.44943 | -124.61063 | 30080 ft | 490 kts | 303° |
| 2026-05-04 03:57 | 46.46580 | -124.65410 | 30321 ft | 493 kts | 303° |
| 2026-05-04 03:57 | 46.48223 | -124.69781 | 30590 ft | 495 kts | 303° |
| 2026-05-04 03:58 | 46.51516 | -124.78565 | 31210 ft | 495 kts | 304° |
| 2026-05-04 03:58 | 46.53160 | -124.82964 | 31544 ft | 495 kts | 304° |
| 2026-05-04 03:58 | 46.54800 | -124.87359 | 31876 ft | 495 kts | 304° |
| 2026-05-04 03:59 | 46.56440 | -124.91759 | 32178 ft | 495 kts | 304° |
| 2026-05-04 03:59 | 46.58076 | -124.96153 | 32494 ft | 495 kts | 304° |
| 2026-05-04 03:59 | 46.59713 | -125.00559 | 32786 ft | 495 kts | 304° |
| 2026-05-04 03:59 | 46.61346 | -125.04959 | 33075 ft | 494 kts | 305° |
| 2026-05-04 04:00 | 46.62973 | -125.09365 | 33336 ft | 494 kts | 304° |
| 2026-05-04 04:00 | 46.64586 | -125.13784 | 33611 ft | 494 kts | 304° |
| 2026-05-04 04:00 | 46.66197 | -125.18205 | 33827 ft | 495 kts | 305° |
| 2026-05-04 04:00 | 46.67815 | -125.22635 | 33892 ft | 496 kts | 305° |
| 2026-05-04 04:01 | 46.71073 | -125.31524 | 33906 ft | 498 kts | 305° |
| 2026-05-04 04:01 | 46.74322 | -125.40391 | 33910 ft | 498 kts | 305° |
| 2026-05-04 04:02 | 46.77570 | -125.49286 | 33910 ft | 496 kts | 304° |
| 2026-05-04 04:02 | 46.80803 | -125.58165 | 33911 ft | 495 kts | 304° |
| 2026-05-04 04:03 | 46.84009 | -125.66999 | 33917 ft | 496 kts | 304° |
| 2026-05-04 04:03 | 46.87239 | -125.75930 | 33919 ft | 497 kts | 304° |
| 2026-05-04 04:04 | 46.90453 | -125.84852 | 33920 ft | 495 kts | 304° |
| 2026-05-04 04:04 | 46.93657 | -125.93771 | 33925 ft | 495 kts | 304° |
| 2026-05-04 04:05 | 46.96853 | -126.02697 | 33925 ft | 495 kts | 304° |
| 2026-05-04 04:05 | 47.00043 | -126.11638 | 33916 ft | 495 kts | 304° |
| 2026-05-04 04:06 | 47.03195 | -126.20574 | 33937 ft | 492 kts | 303° |
| 2026-05-04 04:06 | 47.06299 | -126.29442 | 33938 ft | 492 kts | 303° |
| 2026-05-04 04:07 | 47.09437 | -126.38361 | 33935 ft | 492 kts | 303° |
| 2026-05-04 04:07 | 47.12583 | -126.47298 | 33920 ft | 492 kts | 303° |